createdAt,value
2023-03-03T00:13:47.747Z,32.61
2023-03-03T00:14:47.755Z,32.61
2023-03-03T00:15:47.782Z,32.60
2023-03-03T00:16:47.748Z,32.59
2023-03-03T00:17:47.784Z,32.57
2023-03-03T00:18:47.779Z,32.59
2023-03-03T00:19:47.797Z,32.58
2023-03-03T00:20:47.807Z,32.59
2023-03-03T00:21:47.818Z,32.60
2023-03-03T00:22:47.836Z,32.58
2023-03-03T00:23:47.845Z,32.57
2023-03-03T00:24:47.858Z,32.58
2023-03-03T00:25:47.869Z,32.56
2023-03-03T00:26:47.889Z,32.55
2023-03-03T00:27:47.893Z,32.57
2023-03-03T00:28:47.936Z,32.53
2023-03-03T00:29:47.931Z,32.49
2023-03-03T00:30:47.978Z,32.51
2023-03-03T00:31:47.961Z,32.56
2023-03-03T00:32:47.967Z,32.54
2023-03-03T00:33:47.984Z,32.52
2023-03-03T00:34:47.996Z,32.52
2023-03-03T00:35:48.040Z,32.51
2023-03-03T00:36:48.118Z,32.52
2023-03-03T00:37:48.048Z,32.52
2023-03-03T00:38:48.067Z,32.50
2023-03-03T00:39:48.081Z,32.51
2023-03-03T00:40:48.123Z,32.53
2023-03-03T00:41:48.111Z,32.48
2023-03-03T00:42:48.124Z,32.49
2023-03-03T00:43:48.145Z,32.51
2023-03-03T00:44:48.170Z,32.50
2023-03-03T00:45:48.240Z,32.47
2023-03-03T00:46:48.190Z,32.43
2023-03-03T00:47:48.208Z,32.44
2023-03-03T00:48:48.291Z,32.45
2023-03-03T00:49:48.243Z,32.47
2023-03-03T00:50:48.264Z,32.46
2023-03-03T00:51:48.270Z,32.47
2023-03-03T00:52:48.290Z,32.43
2023-03-03T00:53:48.301Z,32.46
2023-03-03T00:54:48.316Z,32.43
2023-03-03T00:55:48.355Z,32.45
2023-03-03T00:56:48.336Z,32.42
2023-03-03T00:57:48.361Z,32.40
2023-03-03T00:58:48.396Z,32.44
2023-03-03T00:59:48.402Z,32.45
2023-03-03T01:00:48.436Z,32.40
2023-03-03T01:01:48.486Z,32.42
2023-03-03T01:02:48.522Z,32.42
2023-03-03T01:04:48.509Z,32.42
2023-03-03T01:15:48.790Z,32.34
2023-03-03T05:29:53.451Z,31.45
2023-03-03T05:31:53.506Z,31.45
2023-03-03T05:32:53.496Z,31.43
2023-03-03T05:33:53.501Z,31.43
2023-03-03T05:34:53.514Z,31.42
2023-03-03T05:37:53.536Z,31.41
2023-03-03T05:38:53.564Z,31.41
2023-03-03T05:39:53.554Z,31.40
2023-03-03T05:40:53.572Z,31.43
2023-03-03T05:41:53.594Z,31.40
2023-03-03T05:42:53.643Z,31.39
2023-03-03T05:44:54.270Z,31.40
2023-03-03T05:45:53.621Z,31.39
2023-03-03T05:46:53.675Z,31.42
2023-03-03T05:47:54.275Z,31.40
2023-03-03T05:48:53.663Z,31.40
2023-03-03T05:50:53.693Z,31.38
2023-03-03T05:51:53.709Z,31.40
2023-03-03T05:52:53.752Z,31.38
2023-03-03T05:53:56.318Z,31.39
2023-03-03T05:54:53.728Z,31.38
2023-03-03T05:55:53.742Z,31.38
2023-03-03T05:56:53.734Z,31.41
2023-03-03T05:57:53.732Z,31.42
2023-03-03T05:58:53.741Z,31.41
2023-03-03T05:59:53.754Z,31.41
2023-03-03T06:00:53.781Z,31.43
2023-03-03T06:01:53.809Z,31.40
2023-03-03T06:02:53.918Z,31.39
2023-03-03T06:03:53.764Z,31.44
2023-03-03T06:04:53.768Z,31.44
2023-03-03T06:05:53.795Z,31.44
2023-03-03T06:06:53.778Z,31.48
2023-03-03T06:07:53.783Z,31.53
2023-03-03T06:08:55.562Z,31.57
2023-03-03T06:09:53.787Z,31.64
2023-03-03T06:10:53.790Z,31.69
2023-03-03T06:11:53.796Z,31.78
2023-03-03T06:12:53.789Z,31.84
2023-03-03T06:13:53.799Z,31.91
2023-03-03T06:14:53.800Z,31.92
2023-03-03T06:15:53.814Z,32.11
2023-03-03T06:16:53.816Z,32.15
2023-03-03T06:17:53.835Z,32.25
2023-03-03T06:18:53.821Z,32.52
2023-03-03T06:19:53.829Z,32.68
2023-03-03T06:20:53.830Z,32.82
2023-03-03T06:21:53.834Z,32.89
2023-03-03T06:22:53.830Z,32.90
2023-03-03T06:23:53.827Z,32.92
2023-03-03T06:24:53.828Z,33.00
2023-03-03T06:25:53.833Z,33.27
2023-03-03T06:26:53.835Z,33.53
2023-03-03T06:27:53.830Z,33.80
2023-03-03T06:28:53.836Z,33.88
2023-03-03T06:29:53.851Z,33.84
2023-03-03T06:30:53.836Z,33.72
2023-03-03T06:31:53.948Z,33.63
2023-03-03T06:32:53.829Z,33.57
2023-03-03T06:33:53.836Z,33.57
2023-03-03T06:34:53.839Z,33.55
2023-03-03T06:35:54.933Z,33.53
2023-03-03T06:36:53.852Z,32.97
2023-03-03T06:37:53.830Z,32.87
2023-03-03T06:38:53.815Z,32.74
2023-03-03T06:39:53.818Z,33.05
2023-03-03T06:40:53.851Z,32.99
2023-03-03T06:41:53.833Z,32.92
2023-03-03T06:42:53.836Z,33.03
2023-03-03T06:43:53.840Z,33.05
2023-03-03T06:44:53.853Z,33.07
2023-03-03T06:45:53.965Z,33.01
2023-03-03T06:46:53.944Z,33.09
2023-03-03T06:47:53.843Z,33.12
2023-03-03T06:48:53.853Z,33.02
2023-03-03T06:49:53.866Z,33.04
2023-03-03T06:50:53.861Z,33.03
2023-03-03T06:51:53.877Z,32.94
2023-03-03T06:52:53.944Z,32.99
2023-03-03T06:53:53.865Z,32.96
2023-03-03T06:54:53.864Z,32.86
2023-03-03T06:55:53.864Z,32.82
2023-03-03T06:56:53.877Z,32.85
2023-03-03T06:57:53.865Z,32.80
2023-03-03T06:58:53.875Z,32.81
2023-03-03T06:59:53.884Z,32.83
2023-03-03T07:36:54.427Z,33.20
2023-03-03T07:37:54.432Z,33.34
2023-03-03T07:38:54.456Z,33.73
2023-03-03T07:39:55.271Z,33.39
2023-03-03T07:40:54.531Z,33.60
2023-03-03T07:41:54.526Z,33.47
2023-03-03T07:42:54.555Z,33.58
2023-03-03T07:43:54.595Z,33.68
2023-03-03T07:44:54.580Z,33.37
2023-03-03T07:45:54.625Z,33.33
2023-03-03T07:46:54.595Z,33.45
2023-03-03T07:47:54.661Z,33.53
2023-03-03T07:48:54.632Z,33.32
2023-03-03T07:49:54.647Z,33.30
2023-03-03T07:50:54.654Z,33.27
2023-03-03T07:51:54.667Z,33.31
2023-03-03T07:52:54.676Z,33.47
2023-03-03T07:53:54.677Z,33.30
2023-03-03T07:54:54.691Z,33.34
2023-03-03T07:55:54.694Z,33.24
2023-03-03T07:56:54.710Z,33.15
2023-03-03T07:57:54.772Z,33.28
2023-03-03T07:58:54.727Z,33.31
2023-03-03T07:59:54.798Z,33.36
2023-03-03T08:00:54.805Z,33.47
2023-03-03T08:01:54.749Z,33.41
2023-03-03T08:02:54.758Z,33.41
2023-03-03T08:03:54.808Z,33.26
2023-03-03T08:04:54.977Z,33.24
2023-03-03T08:05:54.802Z,33.15
2023-03-03T08:06:54.815Z,33.20
2023-03-03T08:07:54.810Z,33.19
2023-03-03T08:08:54.815Z,33.26
2023-03-03T08:29:55.420Z,34.40
2023-03-03T08:31:08.872Z,33.49
2023-03-03T08:31:56.622Z,33.57
2023-03-03T08:32:55.620Z,33.81
2023-03-03T08:33:55.578Z,33.98
2023-03-03T08:34:55.463Z,33.97
2023-03-03T08:36:55.473Z,34.00
2023-03-03T08:37:56.254Z,33.95
2023-03-03T08:38:55.550Z,33.98
2023-03-03T08:39:55.495Z,33.96
2023-03-03T08:40:55.471Z,33.79
2023-03-03T08:41:55.466Z,33.73
2023-03-03T08:42:55.459Z,33.68
2023-03-03T08:43:55.492Z,33.67
2023-03-03T08:44:55.526Z,33.65
2023-03-03T08:45:55.517Z,33.62
2023-03-03T08:46:55.551Z,33.65
2023-03-03T08:47:55.570Z,33.76
2023-03-03T08:48:55.587Z,33.71
2023-03-03T08:49:55.580Z,33.86
2023-03-03T08:50:55.609Z,33.98
2023-03-03T08:51:55.628Z,34.27
2023-03-03T08:52:55.636Z,34.14
2023-03-03T08:53:55.643Z,34.53
2023-03-03T08:54:55.670Z,34.64
2023-03-03T08:55:55.706Z,34.74
2023-03-03T08:56:55.751Z,34.83
2023-03-03T08:57:55.820Z,34.91
2023-03-03T08:59:03.384Z,34.79
2023-03-03T08:59:57.262Z,34.44
2023-03-03T09:00:55.785Z,34.29
2023-03-03T09:01:55.875Z,34.22
2023-03-03T09:02:55.855Z,34.13
2023-03-03T09:03:55.805Z,34.27
2023-03-03T09:04:55.794Z,34.26
2023-03-03T09:05:55.821Z,34.14
2023-03-03T09:06:55.807Z,34.12
2023-03-03T09:07:55.811Z,34.04
2023-03-03T09:08:55.835Z,33.86
2023-03-03T09:09:55.828Z,34.12
2023-03-03T09:10:55.857Z,34.54
2023-03-03T09:11:55.828Z,35.22
2023-03-03T09:12:55.823Z,35.13
2023-03-03T09:13:55.826Z,35.39
2023-03-03T09:14:55.824Z,35.43
2023-03-03T09:15:56.797Z,35.58
2023-03-03T09:16:55.814Z,36.53
2023-03-03T09:17:55.814Z,36.50
2023-03-03T09:18:55.838Z,36.65
2023-03-03T09:19:56.045Z,36.73
2023-03-03T09:20:55.848Z,37.10
2023-03-03T09:21:55.845Z,37.17
2023-03-03T09:22:55.911Z,37.22
2023-03-03T09:23:55.864Z,37.08
2023-03-03T09:24:55.876Z,37.10
2023-03-03T09:25:55.870Z,37.61
2023-03-03T09:26:55.868Z,37.62
2023-03-03T09:27:55.913Z,37.43
2023-03-03T09:28:55.959Z,37.42
2023-03-03T09:29:56.030Z,37.37
2023-03-03T09:30:56.099Z,37.29
2023-03-03T09:31:56.290Z,37.17
2023-03-03T09:32:56.225Z,37.13
2023-03-03T09:33:56.266Z,37.09
2023-03-03T09:34:56.334Z,37.03
2023-03-03T09:35:57.471Z,36.95
2023-03-03T09:36:56.320Z,36.93
2023-03-03T09:37:56.344Z,36.85
2023-03-03T09:38:56.313Z,36.57
2023-03-03T09:39:56.305Z,36.25
2023-03-03T09:40:56.304Z,35.81
2023-03-03T09:41:56.376Z,35.28
2023-03-03T09:42:56.393Z,35.12
2023-03-03T09:43:56.362Z,35.33
2023-03-03T09:44:56.433Z,34.98
2023-03-03T09:45:56.521Z,34.72
2023-03-03T09:46:56.615Z,34.78
2023-03-03T09:47:56.730Z,34.42
2023-03-03T09:48:56.710Z,34.25
2023-03-03T09:49:57.253Z,34.40
2023-03-03T09:50:56.844Z,34.15
2023-03-03T09:51:56.861Z,33.89
2023-03-03T09:52:56.914Z,34.05
2023-03-03T09:53:56.967Z,33.93
2023-03-03T09:54:56.989Z,34.06
2023-03-03T09:55:57.743Z,33.73
2023-03-03T09:56:57.065Z,33.72
2023-03-03T09:58:10.087Z,33.61
2023-03-03T09:58:58.128Z,33.45
2023-03-03T09:59:57.115Z,33.51
2023-03-03T10:00:57.117Z,33.29
2023-03-03T10:01:57.128Z,33.32
2023-03-03T10:02:57.907Z,33.39
2023-03-03T10:03:57.130Z,33.23
2023-03-03T10:04:57.125Z,33.08
2023-03-03T10:05:57.507Z,33.03
2023-03-03T10:06:57.506Z,33.10
2023-03-03T10:07:57.188Z,32.85
2023-03-03T10:08:57.230Z,32.86
2023-03-03T10:09:57.290Z,32.75
2023-03-03T10:10:57.860Z,32.81
2023-03-03T10:11:57.366Z,32.67
2023-03-03T10:12:57.415Z,32.75
2023-03-03T10:13:57.465Z,32.81
2023-03-03T10:14:57.494Z,33.00
2023-03-03T10:15:57.534Z,33.10
2023-03-03T10:16:57.545Z,33.42
2023-03-03T10:17:57.534Z,33.96
2023-03-03T10:18:57.539Z,33.86
2023-03-03T10:19:57.568Z,34.56
2023-03-03T10:20:57.531Z,34.47
2023-03-03T10:21:57.533Z,34.31
2023-03-03T10:22:57.525Z,33.55
2023-03-03T10:23:59.189Z,33.54
2023-03-03T10:24:57.518Z,31.70
2023-03-03T10:25:57.574Z,31.14
2023-03-03T10:27:11.913Z,31.16
2023-03-03T10:27:58.508Z,31.18
2023-03-03T10:28:57.504Z,32.15
2023-03-03T10:29:57.507Z,32.61
2023-03-03T10:31:05.627Z,33.10
2023-03-03T10:31:58.622Z,33.15
2023-03-03T10:32:57.668Z,33.21
2023-03-03T10:33:57.634Z,33.13
2023-03-03T10:34:58.247Z,33.20
2023-03-03T10:36:07.067Z,33.07
2023-03-03T10:36:58.478Z,33.03
2023-03-03T10:37:57.472Z,32.97
2023-03-03T10:38:57.473Z,32.83
2023-03-03T10:39:57.479Z,33.66
2023-03-03T10:40:57.495Z,33.99
2023-03-03T10:41:58.465Z,34.16
2023-03-03T10:42:57.464Z,34.12
2023-03-03T10:43:57.881Z,34.21
2023-03-03T10:44:57.946Z,34.20
2023-03-03T10:45:57.971Z,34.15
2023-03-03T10:46:57.787Z,34.34
2023-03-03T10:47:57.943Z,34.44
2023-03-03T10:48:57.796Z,34.40
2023-03-03T10:49:57.881Z,34.44
2023-03-03T10:50:57.956Z,34.49
2023-03-03T10:51:57.871Z,34.38
2023-03-03T10:52:57.964Z,34.43
2023-03-03T10:53:57.432Z,34.40
2023-03-03T10:54:57.715Z,34.45
2023-03-03T10:55:57.830Z,34.31
2023-03-03T10:56:57.656Z,34.25
2023-03-03T10:57:57.866Z,34.30
2023-03-03T10:58:57.931Z,34.08
2023-03-03T10:59:57.667Z,34.04
2023-03-03T11:00:58.357Z,34.02
2023-03-03T11:01:57.787Z,33.90
2023-03-03T11:02:57.816Z,33.78
2023-03-03T11:03:57.931Z,33.54
2023-03-03T11:04:57.985Z,33.64
2023-03-03T11:05:58.006Z,33.60
2023-03-03T11:06:58.705Z,33.61
2023-03-03T11:07:58.150Z,33.90
2023-03-03T11:08:58.730Z,33.91
2023-03-03T11:09:58.608Z,34.04
2023-03-03T11:10:58.721Z,34.46
2023-03-03T11:11:58.582Z,34.64
2023-03-03T11:12:58.608Z,34.60
2023-03-03T11:13:58.554Z,33.91
2023-03-03T11:14:58.994Z,33.71
2023-03-03T11:15:58.647Z,33.73
2023-03-03T11:16:58.945Z,33.71
2023-03-03T11:17:59.013Z,33.65
2023-03-03T11:19:01.295Z,33.57
2023-03-03T11:19:58.790Z,33.69
2023-03-03T11:20:58.794Z,33.62
2023-03-03T11:21:58.807Z,33.54
2023-03-03T11:22:58.876Z,33.54
2023-03-03T11:23:58.781Z,33.44
2023-03-03T11:24:58.781Z,33.44
2023-03-03T11:25:58.839Z,33.43
2023-03-03T11:26:58.793Z,34.12
2023-03-03T11:27:58.783Z,34.05
2023-03-03T11:28:58.766Z,34.11
2023-03-03T11:29:58.764Z,34.37
2023-03-03T11:30:58.791Z,34.49
2023-03-03T11:31:58.845Z,34.46
2023-03-03T11:32:58.774Z,34.41
2023-03-03T11:33:58.767Z,34.16
2023-03-03T11:34:58.772Z,34.04
2023-03-03T11:35:58.895Z,33.78
2023-03-03T11:36:58.768Z,33.76
2023-03-03T11:37:58.805Z,33.85
2023-03-03T11:38:58.842Z,33.98
2023-03-03T11:39:58.755Z,34.21
2023-03-03T11:40:58.761Z,34.46
2023-03-03T11:41:58.791Z,34.49
2023-03-03T11:42:59.747Z,34.49
2023-03-03T11:43:59.663Z,34.42
2023-03-03T11:44:58.762Z,34.37
2023-03-03T11:45:58.806Z,34.37
2023-03-03T11:46:58.729Z,34.38
2023-03-03T11:47:58.719Z,34.42
2023-03-03T11:48:58.726Z,34.35
2023-03-03T11:49:58.707Z,34.37
2023-03-03T11:50:58.704Z,34.37
2023-03-03T11:51:58.710Z,34.39
2023-03-03T11:52:58.705Z,34.29
2023-03-03T11:53:58.708Z,34.32
2023-03-03T11:54:58.697Z,34.33
2023-03-03T11:55:58.703Z,34.34
2023-03-03T11:56:58.697Z,34.32
2023-03-03T11:57:58.690Z,34.31
2023-03-03T11:58:58.847Z,34.28
2023-03-03T11:59:58.809Z,34.18
2023-03-03T12:00:58.878Z,34.22
2023-03-03T12:01:59.659Z,34.16
2023-03-03T12:02:59.090Z,34.18
2023-03-03T12:03:59.032Z,34.28
2023-03-03T12:04:59.089Z,34.32
2023-03-03T12:05:59.182Z,33.99
2023-03-03T12:07:59.260Z,33.78
2023-03-03T12:18:59.855Z,34.51
2023-03-03T12:19:59.894Z,34.78
2023-03-03T12:20:59.947Z,34.95
2023-03-03T12:21:59.993Z,34.94
2023-03-03T12:23:06.405Z,34.80
2023-03-03T12:25:00.047Z,34.65
2023-03-03T13:53:04.802Z,33.89
2023-03-03T13:54:04.870Z,33.60
2023-03-03T13:55:04.943Z,33.55
2023-03-03T13:56:05.017Z,33.30
2023-03-03T13:57:05.088Z,33.35
2023-03-03T13:58:05.168Z,33.22
2023-03-03T13:59:05.233Z,33.20
2023-03-03T14:35:07.749Z,33.73
2023-03-03T14:36:07.820Z,33.78
2023-03-03T14:37:07.905Z,33.86
2023-03-03T14:38:07.959Z,33.79
2023-03-03T14:39:08.032Z,33.73
2023-03-03T14:40:08.097Z,33.76
2023-03-03T14:41:08.174Z,33.78
2023-03-03T14:42:08.246Z,33.76
2023-03-03T14:43:08.304Z,33.75
2023-03-03T14:44:08.367Z,33.76
2023-03-03T14:45:20.036Z,33.74
2023-03-03T14:46:09.476Z,33.71
2023-03-03T14:47:08.429Z,33.77
2023-03-03T14:48:08.438Z,33.79
2023-03-03T14:49:08.447Z,33.82
2023-03-03T14:50:08.450Z,33.80
2023-03-03T14:51:08.447Z,33.83
2023-03-03T14:52:08.464Z,33.84
2023-03-03T14:53:08.461Z,33.80
2023-03-03T14:54:08.526Z,33.83
2023-03-03T14:55:08.596Z,33.82
2023-03-03T14:56:08.677Z,33.82
2023-03-03T14:57:08.746Z,33.83
2023-03-03T14:58:08.844Z,33.80
2023-03-03T14:59:08.939Z,33.83
2023-03-03T15:00:09.265Z,33.83
2023-03-03T15:01:09.060Z,33.83
2023-03-03T15:02:09.093Z,33.78
2023-03-03T15:03:09.155Z,33.82
2023-03-03T15:04:09.242Z,33.82
2023-03-03T15:05:09.370Z,33.79
2023-03-03T15:06:09.377Z,33.85
2023-03-03T15:07:09.427Z,33.82
2023-03-03T15:08:09.514Z,33.82
2023-03-03T15:10:09.655Z,33.85
2023-03-03T15:11:09.723Z,33.83
2023-03-03T15:12:09.802Z,33.86
2023-03-03T15:13:09.866Z,33.84
2023-03-03T15:14:09.939Z,33.85
2023-03-03T15:15:11.504Z,33.86
2023-03-03T15:16:10.161Z,33.85
2023-03-03T15:17:10.154Z,33.87
2023-03-03T15:18:10.237Z,33.83
2023-03-03T15:19:10.297Z,33.87
2023-03-03T15:20:10.381Z,33.87
2023-03-03T17:07:17.713Z,33.86
2023-03-03T17:08:17.780Z,33.87
2023-03-03T17:09:31.496Z,33.84
2023-03-03T17:11:17.876Z,33.89
2023-03-03T17:12:17.863Z,33.85
2023-03-03T17:13:17.878Z,33.82
2023-03-03T17:14:17.961Z,33.86
2023-03-03T17:15:17.889Z,33.83
2023-03-03T17:16:17.926Z,33.84
2023-03-03T17:17:17.920Z,33.86
2023-03-03T17:18:17.993Z,33.85
2023-03-03T17:19:18.067Z,33.86
2023-03-03T21:15:30.240Z,33.81
2023-03-03T21:40:28.186Z,33.79
2023-03-03T21:41:27.335Z,33.80
2023-03-03T21:47:27.342Z,33.75
2023-03-03T21:48:27.338Z,33.75
2023-03-03T21:49:27.338Z,33.72
2023-03-03T21:50:27.342Z,33.75
2023-03-03T21:51:27.337Z,33.72
2023-03-03T21:52:27.333Z,33.76
2023-03-03T21:53:27.330Z,33.74
2023-03-03T22:47:28.191Z,33.68
2023-03-03T23:08:28.176Z,33.65
